createdAt,value
2023-02-11T00:01:42.887Z,66.50
2023-02-11T00:04:11.270Z,67.30
2023-02-11T00:06:39.427Z,67.07
2023-02-11T00:09:07.886Z,67.30
2023-02-11T00:11:35.970Z,66.42
2023-02-11T00:14:08.065Z,66.88
2023-02-11T00:16:37.556Z,66.65
2023-02-11T00:19:06.754Z,66.73
2023-02-11T00:21:34.961Z,67.59
2023-02-11T00:24:03.001Z,67.79
2023-02-11T00:26:35.853Z,67.53
2023-02-11T00:29:05.977Z,67.25
2023-02-11T00:31:35.103Z,67.56
2023-02-11T00:34:03.173Z,67.76
2023-02-11T00:36:31.581Z,67.64
2023-02-11T00:39:00.887Z,67.02
2023-02-11T00:41:30.008Z,66.95
2023-02-11T00:44:01.755Z,67.80
2023-02-11T00:46:30.391Z,68.25
2023-02-11T00:48:58.810Z,68.03
2023-02-11T00:51:28.649Z,66.90
2023-02-11T00:53:57.296Z,66.62
2023-02-11T00:56:25.196Z,67.08
2023-02-11T00:58:54.287Z,67.28
2023-02-11T01:01:22.436Z,67.27
2023-02-11T01:03:50.425Z,67.28
2023-02-11T01:06:18.507Z,67.65
2023-02-11T01:08:46.460Z,67.67
2023-02-11T01:11:18.101Z,66.62
2023-02-11T01:13:47.238Z,66.99
2023-02-11T01:16:17.128Z,67.09
2023-02-11T01:18:46.501Z,67.61
2023-02-11T01:21:15.078Z,67.34
2023-02-11T01:23:44.046Z,67.40
2023-02-11T01:26:12.648Z,67.11
2023-02-11T01:28:40.555Z,67.36
2023-02-11T01:31:08.895Z,67.40
2023-02-11T01:33:36.726Z,68.38
2023-02-11T01:36:08.435Z,67.04
2023-02-11T01:38:36.803Z,67.56
2023-02-11T01:41:11.355Z,67.46
2023-02-11T01:43:42.841Z,65.87
2023-02-11T01:46:29.274Z,65.11
2023-02-11T01:49:08.929Z,66.14
2023-02-11T01:52:01.940Z,66.45
2023-02-11T01:54:59.624Z,66.65
2023-02-11T01:57:31.388Z,66.75
2023-02-11T02:00:21.761Z,66.68
2023-02-11T02:03:04.476Z,65.90
2023-02-11T02:05:42.015Z,65.20
2023-02-11T02:08:32.474Z,65.53
2023-02-11T02:11:03.875Z,65.12
2023-02-11T02:13:34.314Z,65.54
2023-02-11T02:16:12.861Z,65.46
2023-02-11T02:19:08.788Z,66.17
2023-02-11T02:22:14.531Z,66.41
2023-02-11T02:25:01.264Z,66.41
2023-02-11T02:27:51.229Z,66.92
2023-02-11T02:30:43.856Z,66.29
2023-02-11T02:33:38.017Z,66.48
2023-02-11T02:36:14.722Z,67.58
2023-02-11T02:38:56.434Z,67.71
2023-02-11T02:41:30.146Z,66.91
2023-02-11T02:43:58.603Z,65.62
2023-02-11T02:46:30.106Z,64.99
2023-02-11T02:48:58.879Z,65.21
2023-02-11T02:51:58.213Z,65.42
2023-02-11T02:54:40.309Z,65.51
2023-02-11T02:58:54.206Z,65.50
2023-02-11T03:01:28.779Z,64.90
2023-02-11T03:04:18.661Z,65.50
2023-02-11T03:07:04.331Z,65.79
2023-02-11T03:09:42.954Z,66.18
2023-02-11T03:12:13.488Z,65.94
2023-02-11T03:14:42.326Z,65.86
2023-02-11T03:17:10.865Z,65.80
2023-02-11T03:19:44.679Z,65.61
2023-02-11T03:22:26.711Z,64.98
2023-02-11T03:24:56.532Z,65.51
2023-02-11T03:27:47.553Z,65.32
2023-02-11T03:30:26.450Z,66.20
2023-02-11T03:33:03.931Z,65.67
2023-02-11T03:36:03.851Z,65.89
2023-02-11T03:38:36.049Z,66.00
2023-02-11T03:41:08.170Z,65.33
2023-02-11T03:43:42.938Z,65.58
2023-02-11T03:46:13.766Z,65.49
2023-02-11T03:48:52.640Z,65.76
2023-02-11T03:51:22.567Z,66.17
2023-02-11T03:53:53.011Z,66.15
2023-02-11T03:56:25.600Z,67.40
2023-02-11T03:58:53.687Z,66.59
2023-02-11T04:01:21.899Z,67.02
2023-02-11T04:03:49.767Z,67.24
2023-02-11T04:06:18.193Z,66.50
2023-02-11T04:08:46.066Z,65.70
2023-02-11T04:11:13.945Z,65.17
2023-02-11T04:13:41.739Z,65.75
2023-02-11T04:16:10.115Z,65.42
2023-02-11T04:18:38.334Z,65.75
2023-02-11T04:21:06.446Z,65.44
2023-02-11T04:23:34.300Z,66.30
2023-02-11T04:26:02.347Z,66.73
2023-02-11T04:28:30.328Z,66.66
2023-02-11T04:30:58.761Z,65.94
2023-02-11T04:33:26.827Z,66.00
2023-02-11T04:35:54.833Z,65.94
2023-02-11T04:38:24.421Z,65.95
2023-02-11T04:40:52.600Z,65.79
2023-02-11T04:43:20.547Z,65.46
2023-02-11T04:45:48.919Z,65.20
2023-02-11T04:48:17.056Z,65.02
2023-02-11T04:50:44.931Z,64.62
2023-02-11T04:53:12.891Z,65.41
2023-02-11T04:55:40.841Z,65.87
2023-02-11T04:58:08.814Z,65.94
2023-02-11T05:00:36.838Z,65.89
2023-02-11T05:03:04.598Z,65.68
2023-02-11T05:05:32.555Z,65.37
2023-02-11T05:08:00.551Z,64.53
2023-02-11T05:10:28.875Z,64.61
2023-02-11T05:12:56.964Z,64.53
2023-02-11T05:15:24.903Z,64.58
2023-02-11T05:17:53.285Z,65.08
2023-02-11T05:20:21.606Z,65.21
2023-02-11T05:22:49.587Z,65.09
2023-02-11T05:25:17.467Z,65.21
2023-02-11T05:27:45.588Z,66.25
2023-02-11T05:30:13.666Z,66.68
2023-02-11T05:32:42.460Z,66.99
2023-02-11T05:35:10.371Z,66.82
2023-02-11T05:37:38.616Z,67.03
2023-02-11T05:40:06.824Z,67.13
2023-02-11T05:42:34.803Z,66.44
2023-02-11T05:45:02.732Z,66.84
2023-02-11T05:47:30.861Z,66.40
2023-02-11T05:49:59.018Z,66.07
2023-02-11T05:52:26.953Z,65.57
2023-02-11T05:54:54.881Z,65.44
2023-02-11T05:57:23.089Z,64.95
2023-02-11T05:59:50.994Z,64.46
2023-02-11T06:02:19.192Z,64.77
2023-02-11T06:04:47.487Z,65.08
2023-02-11T06:07:15.629Z,65.32
2023-02-11T06:09:44.000Z,65.06
2023-02-11T06:12:12.934Z,65.93
2023-02-11T06:14:40.945Z,66.77
2023-02-11T06:17:09.219Z,66.46
2023-02-11T06:19:37.738Z,65.70
2023-02-11T06:22:06.094Z,65.38
2023-02-11T06:24:58.606Z,65.44
2023-02-11T06:27:22.434Z,65.48
2023-02-11T06:29:52.652Z,65.35
2023-02-11T06:32:42.091Z,65.07
2023-02-11T06:35:11.457Z,65.14
2023-02-11T06:37:41.286Z,65.37
2023-02-11T06:40:10.469Z,65.67
2023-02-11T06:42:39.626Z,65.36
2023-02-11T06:45:13.420Z,65.93
2023-02-11T06:47:42.221Z,65.22
2023-02-11T06:50:13.926Z,66.38
2023-02-11T06:52:42.377Z,65.66
2023-02-11T06:55:10.570Z,66.06
2023-02-11T06:57:38.652Z,65.85
2023-02-11T07:00:09.461Z,64.49
2023-02-11T07:02:37.372Z,64.53
2023-02-11T07:05:07.438Z,65.49
2023-02-11T07:07:36.236Z,65.61
2023-02-11T07:10:04.891Z,65.29
2023-02-11T07:12:33.133Z,66.14
2023-02-11T07:15:01.309Z,65.76
2023-02-11T07:17:29.308Z,65.64
2023-02-11T07:19:57.292Z,65.16
2023-02-11T07:22:25.583Z,65.53
2023-02-11T07:24:53.677Z,66.76
2023-02-11T07:27:21.593Z,66.33
2023-02-11T07:29:49.560Z,65.87
2023-02-11T07:32:17.853Z,65.77
2023-02-11T07:34:46.019Z,65.58
2023-02-11T07:37:14.386Z,65.96
2023-02-11T07:39:42.292Z,65.03
2023-02-11T07:42:10.284Z,65.64
2023-02-11T07:44:38.295Z,65.55
2023-02-11T07:47:06.365Z,63.13
2023-02-11T07:49:34.340Z,57.20
2023-02-11T07:52:02.648Z,55.43
2023-02-11T07:54:30.797Z,56.12
2023-02-11T07:56:59.255Z,57.06
2023-02-11T07:59:27.689Z,58.66
2023-02-11T08:01:56.004Z,58.26
2023-02-11T08:04:24.039Z,58.61
2023-02-11T08:06:53.343Z,60.33
2023-02-11T08:09:21.477Z,59.17
2023-02-11T08:11:49.724Z,56.46
2023-02-11T08:14:17.708Z,55.43
2023-02-11T08:16:45.770Z,56.14
2023-02-11T08:19:16.263Z,53.70
2023-02-11T08:21:44.795Z,53.05
2023-02-11T08:24:12.870Z,51.01
2023-02-11T08:26:41.275Z,49.05
2023-02-11T08:29:12.379Z,45.92
2023-02-11T08:31:42.919Z,45.91
2023-02-11T08:34:14.413Z,44.90
2023-02-11T08:36:42.864Z,43.65
2023-02-11T08:39:22.565Z,43.99
2023-02-11T08:41:56.853Z,43.67
2023-02-11T08:44:25.266Z,41.92
2023-02-11T08:46:54.181Z,41.96
2023-02-11T08:49:23.041Z,42.43
2023-02-11T08:51:51.654Z,42.02
2023-02-11T08:54:19.763Z,40.97
2023-02-11T08:56:52.077Z,39.74
2023-02-11T08:59:20.440Z,38.23
2023-02-11T09:01:49.133Z,37.05
2023-02-11T09:04:17.905Z,37.11
2023-02-11T09:06:46.577Z,36.15
2023-02-11T09:09:16.140Z,35.53
2023-02-11T09:11:45.989Z,32.68
2023-02-11T09:14:23.199Z,30.33
2023-02-11T09:16:52.046Z,28.82
2023-02-11T09:19:21.308Z,28.26
2023-02-11T09:21:49.576Z,26.90
2023-02-11T09:24:17.632Z,26.35
2023-02-11T09:26:45.975Z,25.76
2023-02-11T09:29:14.078Z,25.33
2023-02-11T09:31:42.811Z,26.19
2023-02-11T09:34:11.886Z,26.21
2023-02-11T09:36:41.408Z,26.18
2023-02-11T09:39:17.209Z,24.82
2023-02-11T09:41:54.189Z,24.57
2023-02-11T09:44:25.771Z,24.36
2023-02-11T09:47:00.264Z,24.25
2023-02-11T09:49:49.118Z,23.00
2023-02-11T09:52:31.225Z,22.24
2023-02-11T09:55:02.380Z,20.82
2023-02-11T09:57:36.809Z,20.56
2023-02-11T10:00:32.618Z,19.37
2023-02-11T10:03:20.156Z,18.79
2023-02-11T10:06:23.563Z,19.65
2023-02-11T10:09:20.098Z,20.04
2023-02-11T10:11:59.712Z,20.57
2023-02-11T10:15:04.981Z,19.34
2023-02-11T10:18:07.149Z,19.91
2023-02-11T10:20:38.310Z,20.36
2023-02-11T10:23:26.123Z,20.68
2023-02-11T10:25:56.667Z,20.36
2023-02-11T10:28:31.689Z,20.17
2023-02-11T10:31:25.566Z,21.01
2023-02-11T10:34:06.819Z,20.86
2023-02-11T10:36:38.189Z,20.12
2023-02-11T10:39:26.396Z,19.79
2023-02-11T10:42:00.806Z,20.13
2023-02-11T10:44:33.531Z,21.41
2023-02-11T10:47:06.075Z,21.12
2023-02-11T10:49:43.233Z,20.52
2023-02-11T10:52:26.268Z,19.59
2023-02-11T10:54:58.437Z,19.50
2023-02-11T10:57:35.852Z,19.38
2023-02-11T11:00:27.174Z,19.51
2023-02-11T11:03:00.576Z,18.90
2023-02-11T11:05:47.756Z,19.37
2023-02-11T11:11:07.417Z,19.66
2023-02-11T11:36:02.851Z,18.88
2023-02-11T11:38:33.888Z,19.46
2023-02-11T12:25:35.883Z,30.94
2023-02-11T12:40:05.730Z,33.70
2023-02-11T12:52:16.927Z,34.04
2023-02-11T13:14:40.696Z,36.15
2023-02-11T13:26:27.251Z,38.47
2023-02-11T13:29:22.438Z,37.49
2023-02-11T13:35:09.799Z,38.41
2023-02-11T13:43:47.956Z,38.27
2023-02-11T14:00:31.386Z,35.41
2023-02-11T14:03:31.656Z,36.97
2023-02-11T14:06:37.869Z,36.65
2023-02-11T14:15:02.630Z,38.75
2023-02-11T14:44:22.673Z,42.29
2023-02-11T15:31:47.914Z,51.53
2023-02-11T15:34:16.591Z,51.37
2023-02-11T15:36:45.066Z,50.22
2023-02-11T15:39:18.920Z,50.59
2023-02-11T15:41:47.620Z,52.04
2023-02-11T15:44:33.093Z,51.84
2023-02-11T15:47:01.658Z,52.07
2023-02-11T15:49:30.615Z,52.69
2023-02-11T15:51:59.095Z,52.38
2023-02-11T15:54:31.946Z,52.80
2023-02-11T15:57:04.336Z,53.07
2023-02-11T15:59:38.998Z,53.30
2023-02-11T16:02:35.123Z,53.37
2023-02-11T16:05:10.198Z,52.72
2023-02-11T16:07:49.985Z,53.75
2023-02-11T16:10:27.937Z,55.68
2023-02-11T16:13:19.025Z,54.73
2023-02-11T16:16:04.396Z,55.13
2023-02-11T16:18:52.088Z,56.26
2023-02-11T16:21:43.645Z,56.60
2023-02-11T16:24:39.708Z,56.75
2023-02-11T16:27:22.009Z,56.45
2023-02-11T16:29:51.649Z,57.24
2023-02-11T16:32:23.964Z,57.52
2023-02-11T16:34:55.731Z,56.75
2023-02-11T16:37:25.556Z,56.94
2023-02-11T16:39:55.775Z,58.21
2023-02-11T16:42:24.894Z,58.71
2023-02-11T16:44:53.384Z,58.77
2023-02-11T16:47:27.518Z,59.46
2023-02-11T16:49:57.403Z,59.33
2023-02-11T16:52:26.383Z,60.13
2023-02-11T16:54:55.351Z,60.97
2023-02-11T16:57:28.805Z,60.47
2023-02-11T17:00:00.070Z,60.23
2023-02-11T17:02:33.312Z,60.37
2023-02-11T17:05:05.286Z,61.70
2023-02-11T17:07:34.539Z,61.67
2023-02-11T17:10:03.112Z,62.10
2023-02-11T17:12:31.994Z,62.38
2023-02-11T17:15:00.633Z,61.95
2023-02-11T17:17:30.370Z,62.77
2023-02-11T17:19:59.087Z,63.03
2023-02-11T17:22:27.546Z,63.27
2023-02-11T17:24:59.186Z,62.75
2023-02-11T17:27:28.041Z,63.31
2023-02-11T17:29:56.532Z,63.68
2023-02-11T17:32:25.135Z,62.99
2023-02-11T17:34:54.637Z,63.55
2023-02-11T17:37:22.881Z,63.61
2023-02-11T17:39:51.526Z,62.77
2023-02-11T17:42:20.144Z,62.87
2023-02-11T17:44:48.551Z,63.67
2023-02-11T17:47:17.109Z,63.55
2023-02-11T17:49:46.084Z,63.82
2023-02-11T17:52:15.255Z,64.29
2023-02-11T17:54:43.758Z,63.71
2023-02-11T17:57:13.700Z,64.29
2023-02-11T17:59:42.317Z,63.72
2023-02-11T18:02:13.037Z,64.15
2023-02-11T18:04:41.687Z,64.60
2023-02-11T18:07:09.993Z,64.61
2023-02-11T18:09:40.269Z,64.42
2023-02-11T18:12:09.370Z,64.58
2023-02-11T18:14:41.578Z,64.90
2023-02-11T18:17:11.210Z,64.82
2023-02-11T18:19:39.861Z,64.26
2023-02-11T18:22:09.849Z,64.55
2023-02-11T18:24:40.750Z,65.56
2023-02-11T18:27:09.725Z,65.72
2023-02-11T18:29:38.729Z,65.67
2023-02-11T18:32:07.408Z,65.95
2023-02-11T18:34:35.719Z,64.93
2023-02-11T18:37:04.198Z,64.81
2023-02-11T18:39:32.975Z,64.26
2023-02-11T18:42:01.467Z,64.75
2023-02-11T18:44:29.892Z,64.87
2023-02-11T18:46:58.578Z,64.69
2023-02-11T18:49:27.579Z,65.50
2023-02-11T18:51:58.625Z,65.77
2023-02-11T18:54:27.296Z,66.16
2023-02-11T18:56:55.683Z,65.68
2023-02-11T18:59:24.198Z,65.60
2023-02-11T19:01:52.828Z,65.89
2023-02-11T19:04:21.264Z,65.67
2023-02-11T19:06:50.384Z,65.67
2023-02-11T19:09:20.596Z,65.81
2023-02-11T19:11:52.671Z,66.67
2023-02-11T19:14:25.450Z,66.06
2023-02-11T19:16:56.938Z,66.53
2023-02-11T19:19:28.627Z,65.92
2023-02-11T19:21:58.720Z,66.27
2023-02-11T19:24:28.848Z,67.58
2023-02-11T19:26:59.535Z,67.25
2023-02-11T19:29:28.824Z,66.63
2023-02-11T19:31:57.275Z,66.83
2023-02-11T19:34:25.875Z,66.00
2023-02-11T19:36:54.815Z,66.29
2023-02-11T19:39:25.116Z,65.84
2023-02-11T19:41:54.183Z,66.15
2023-02-11T19:44:22.571Z,65.76
2023-02-11T19:46:53.727Z,65.87
2023-02-11T19:49:26.824Z,66.76
2023-02-11T19:51:58.639Z,66.93
2023-02-11T19:54:29.491Z,66.58
2023-02-11T19:56:59.103Z,66.78
2023-02-11T19:59:27.914Z,67.09
2023-02-11T20:01:56.398Z,66.48
2023-02-11T20:04:25.465Z,67.05
2023-02-11T20:06:54.015Z,66.77
2023-02-11T20:09:23.184Z,67.04
2023-02-11T20:11:51.686Z,67.03
2023-02-11T20:14:20.222Z,67.32
2023-02-11T20:16:50.092Z,67.16
2023-02-11T20:19:22.157Z,66.94
2023-02-11T20:21:56.156Z,67.87
2023-02-11T20:24:25.969Z,67.17
2023-02-11T20:26:57.378Z,67.06
2023-02-11T20:29:26.274Z,67.09
2023-02-11T20:31:55.335Z,67.45
2023-02-11T20:34:25.345Z,67.80
2023-02-11T20:36:54.692Z,66.88
2023-02-11T20:39:25.700Z,67.35
2023-02-11T20:41:54.884Z,67.70
2023-02-11T20:44:23.768Z,67.57
2023-02-11T20:46:54.638Z,67.59
2023-02-11T20:49:25.035Z,67.28
2023-02-11T20:51:54.326Z,67.11
2023-02-11T20:54:25.299Z,66.97
2023-02-11T20:56:54.607Z,67.20
2023-02-11T20:59:23.350Z,67.56
2023-02-11T21:01:54.398Z,68.57
2023-02-11T21:04:29.851Z,67.72
2023-02-11T21:07:00.981Z,68.09
2023-02-11T21:09:32.575Z,67.75
2023-02-11T21:12:01.929Z,68.07
2023-02-11T21:14:30.787Z,67.89
2023-02-11T21:16:59.396Z,68.26
2023-02-11T21:19:27.691Z,67.78
2023-02-11T21:21:57.524Z,67.57
2023-02-11T21:24:25.801Z,67.94
2023-02-11T21:26:54.368Z,67.96
2023-02-11T21:29:22.791Z,67.99
2023-02-11T21:31:51.860Z,68.25
2023-02-11T21:34:20.938Z,69.41
2023-02-11T21:36:51.492Z,69.05
2023-02-11T21:39:20.789Z,68.38
2023-02-11T21:41:49.551Z,68.28
2023-02-11T21:44:18.107Z,68.59
2023-02-11T21:46:46.143Z,68.77
2023-02-11T21:49:14.313Z,68.95
2023-02-11T21:51:42.752Z,68.72
2023-02-11T21:54:12.161Z,68.72
2023-02-11T21:56:40.811Z,68.01
2023-02-11T21:59:12.477Z,68.39
2023-02-11T22:01:40.811Z,67.91
2023-02-11T22:04:10.249Z,68.30
2023-02-11T22:06:38.537Z,68.71
2023-02-11T22:09:08.722Z,68.96
2023-02-11T22:11:36.970Z,68.75
2023-02-11T22:14:05.347Z,69.46
2023-02-11T22:16:33.626Z,68.96
2023-02-11T22:19:02.692Z,69.58
2023-02-11T22:21:32.579Z,69.62
2023-02-11T22:24:00.561Z,69.78
2023-02-11T22:26:29.041Z,69.82
2023-02-11T22:28:57.112Z,69.83
2023-02-11T22:31:31.433Z,70.04
2023-02-11T22:34:00.530Z,70.48
2023-02-11T22:36:34.852Z,70.60
2023-02-11T22:39:08.263Z,70.26
2023-02-11T22:41:38.467Z,69.59
2023-02-11T22:44:06.864Z,69.43
2023-02-11T22:46:35.651Z,69.52
2023-02-11T22:49:05.139Z,69.43
2023-02-11T22:51:33.378Z,69.62
2023-02-11T22:54:03.947Z,69.58
2023-02-11T22:56:33.782Z,68.94
2023-02-11T22:59:02.988Z,68.90
2023-02-11T23:01:31.762Z,69.21
2023-02-11T23:04:02.640Z,69.65
2023-02-11T23:06:30.939Z,69.50
2023-02-11T23:08:58.966Z,69.71
2023-02-11T23:11:29.091Z,69.49
2023-02-11T23:13:57.288Z,68.91
2023-02-11T23:16:33.627Z,68.82
2023-02-11T23:19:05.295Z,70.03
2023-02-11T23:21:36.987Z,70.05
2023-02-11T23:24:12.583Z,69.29
2023-02-11T23:26:41.847Z,69.92
2023-02-11T23:29:10.350Z,69.20
2023-02-11T23:31:40.833Z,69.63
2023-02-11T23:34:10.281Z,69.97
2023-02-11T23:36:38.146Z,69.59
2023-02-11T23:39:06.469Z,69.62
2023-02-11T23:41:34.326Z,70.13
2023-02-11T23:44:02.334Z,69.86
2023-02-11T23:46:30.261Z,70.02
2023-02-11T23:48:58.175Z,69.88
2023-02-11T23:51:26.111Z,69.43
2023-02-11T23:53:56.317Z,69.81
2023-02-11T23:56:26.821Z,69.99
2023-02-11T23:58:57.429Z,70.46
